createdAt,value
2017-10-03T00:06:02.259Z,0
2017-10-03T00:07:12.277Z,0
2017-10-03T00:08:22.300Z,0
2017-10-03T00:09:32.629Z,0
2017-10-03T00:10:42.653Z,0
2017-10-03T00:11:53.035Z,0
2017-10-03T00:13:03.047Z,0
2017-10-03T00:14:13.068Z,0
2017-10-03T00:15:23.421Z,0
2017-10-03T00:16:33.438Z,0
2017-10-03T00:17:43.854Z,0
2017-10-03T00:18:54.184Z,0
2017-10-03T00:20:04.520Z,0
2017-10-03T00:21:14.876Z,0
2017-10-03T00:22:25.228Z,0
2017-10-03T00:23:35.601Z,0
2017-10-03T00:24:45.609Z,0
2017-10-03T00:25:55.633Z,0
2017-10-03T00:27:05.646Z,0
2017-10-03T00:28:16.009Z,0
2017-10-03T00:29:26.356Z,0
2017-10-03T00:30:36.373Z,0
2017-10-03T00:31:46.400Z,0
2017-10-03T00:32:56.418Z,0
2017-10-03T00:34:06.438Z,0
2017-10-03T00:35:16.167Z,0
2017-10-03T00:36:26.507Z,0
2017-10-03T00:37:36.248Z,0
2017-10-03T00:38:46.615Z,0
2017-10-03T00:39:56.977Z,0
2017-10-03T00:41:07.058Z,0
2017-10-03T00:42:17.390Z,0
2017-10-03T00:43:27.432Z,0
2017-10-03T00:44:37.754Z,0
2017-10-03T00:45:47.785Z,0
2017-10-03T00:46:57.789Z,0
2017-10-03T00:48:07.828Z,0
2017-10-03T00:49:18.178Z,0
2017-10-03T00:50:27.887Z,0
2017-10-03T00:51:37.602Z,0
2017-10-03T00:52:47.996Z,0
2017-10-03T00:53:59.038Z,0
2017-10-03T00:55:09.048Z,0
2017-10-03T00:56:19.380Z,0
2017-10-03T00:57:29.719Z,0
2017-10-03T00:58:40.042Z,0
2017-10-03T00:59:50.392Z,0
2017-10-03T01:01:00.737Z,0
2017-10-03T01:02:10.437Z,0
2017-10-03T01:03:20.769Z,0
2017-10-03T01:04:30.779Z,0
2017-10-03T01:05:41.115Z,0
2017-10-03T01:06:51.143Z,0
2017-10-03T01:08:01.471Z,0
2017-10-03T01:09:11.821Z,0
2017-10-03T01:10:21.888Z,0
2017-10-03T01:11:31.909Z,0
2017-10-03T01:12:41.926Z,0
2017-10-03T01:13:51.949Z,0
2017-10-03T01:15:02.278Z,0
2017-10-03T01:16:12.343Z,0
2017-10-03T01:17:22.677Z,0
2017-10-03T01:18:33.022Z,0
2017-10-03T01:19:43.376Z,0
2017-10-03T01:20:53.766Z,0
2017-10-03T01:22:04.096Z,0
2017-10-03T01:23:14.428Z,0
2017-10-03T01:24:24.446Z,0
2017-10-03T01:25:34.792Z,0
2017-10-03T01:26:44.824Z,0
2017-10-03T01:27:55.155Z,0
2017-10-03T01:29:05.491Z,0
2017-10-03T01:30:15.890Z,0
2017-10-03T01:31:26.366Z,0
2017-10-03T01:32:36.383Z,0
2017-10-03T01:33:46.445Z,0
2017-10-03T01:34:56.826Z,0
2017-10-03T01:36:07.167Z,0
2017-10-03T01:37:17.205Z,0
2017-10-03T01:38:27.226Z,0
2017-10-03T01:39:36.997Z,0
2017-10-03T01:40:47.325Z,0
2017-10-03T01:41:57.678Z,0
2017-10-03T01:43:07.739Z,0
2017-10-03T01:44:18.099Z,0
2017-10-03T01:45:28.430Z,0
2017-10-03T01:46:38.757Z,0
2017-10-03T01:47:49.084Z,0
2017-10-03T01:48:59.112Z,0
2017-10-03T01:50:09.450Z,0
2017-10-03T01:51:19.798Z,0
2017-10-03T01:52:30.136Z,0
2017-10-03T01:53:40.473Z,0
2017-10-03T01:54:50.501Z,0
2017-10-03T01:56:00.840Z,0
2017-10-03T01:57:11.168Z,0
2017-10-03T01:58:21.499Z,0
2017-10-03T01:59:31.527Z,0
2017-10-03T02:00:41.906Z,0
2017-10-03T02:01:51.932Z,0
2017-10-03T02:03:02.322Z,0
2017-10-03T02:04:12.652Z,0
2017-10-03T02:05:22.681Z,0
2017-10-03T02:06:33.028Z,0
2017-10-03T02:07:43.364Z,0
2017-10-03T02:08:53.390Z,0
2017-10-03T02:10:03.415Z,0
2017-10-03T02:11:13.472Z,0
2017-10-03T02:12:23.186Z,0
2017-10-03T02:13:33.529Z,0
2017-10-03T02:14:43.315Z,0
2017-10-03T02:15:53.643Z,0
2017-10-03T02:17:03.980Z,0
2017-10-03T02:18:14.311Z,0
2017-10-03T02:19:24.638Z,0
2017-10-03T02:20:35.033Z,0
2017-10-03T02:21:45.376Z,0
2017-10-03T02:22:55.720Z,0
2017-10-03T02:24:06.054Z,0
2017-10-03T02:25:16.401Z,0
2017-10-03T02:26:26.786Z,0
2017-10-03T02:27:37.114Z,0
2017-10-03T02:28:47.140Z,0
2017-10-03T02:29:57.479Z,0
2017-10-03T02:31:07.816Z,0
2017-10-03T02:32:18.204Z,0
2017-10-03T02:33:28.543Z,0
2017-10-03T02:34:38.559Z,0
2017-10-03T02:35:48.897Z,0
2017-10-03T02:36:59.235Z,0
2017-10-03T02:38:09.592Z,0
2017-10-03T02:39:19.626Z,0
2017-10-03T02:40:29.963Z,0
2017-10-03T02:41:40.296Z,0
2017-10-03T02:42:49.999Z,0
2017-10-03T02:44:00.395Z,0
2017-10-03T02:45:10.729Z,0
2017-10-03T02:46:21.083Z,0
2017-10-03T02:47:31.430Z,0
2017-10-03T02:48:41.781Z,0
2017-10-03T02:49:52.177Z,0
2017-10-03T02:51:02.500Z,0
2017-10-03T02:52:12.833Z,0
2017-10-03T02:53:23.179Z,0
2017-10-03T02:54:33.225Z,0
2017-10-03T02:55:42.943Z,0
2017-10-03T02:56:52.951Z,0
2017-10-03T02:58:02.961Z,0
2017-10-03T02:59:13.302Z,0
2017-10-03T03:00:23.330Z,0
2017-10-03T03:01:33.662Z,0
2017-10-03T03:33:25.963Z,0
2017-10-03T03:34:36.286Z,0
2017-10-03T03:35:46.612Z,0
2017-10-03T03:36:56.934Z,0
2017-10-03T03:38:07.260Z,0
2017-10-03T03:39:17.009Z,0
2017-10-03T03:40:27.026Z,0
2017-10-03T03:41:37.371Z,0
2017-10-03T03:42:47.704Z,0
2017-10-03T03:43:57.720Z,0
2017-10-03T03:45:08.053Z,0
2017-10-03T03:46:18.083Z,0
2017-10-03T03:47:28.107Z,0
2017-10-03T03:48:38.438Z,0
2017-10-03T03:49:48.450Z,0
2017-10-03T03:50:58.476Z,0
2017-10-03T03:52:08.478Z,0
2017-10-03T03:53:18.814Z,0
2017-10-03T03:54:28.806Z,0
2017-10-03T03:55:39.143Z,0
2017-10-03T03:56:49.465Z,0
2017-10-03T03:57:59.792Z,0
2017-10-03T03:59:09.810Z,0
2017-10-03T04:00:20.147Z,0
2017-10-03T04:01:30.487Z,0
2017-10-03T04:02:40.557Z,0
2017-10-03T04:03:50.910Z,0
2017-10-03T04:05:01.273Z,0
2017-10-03T04:06:11.618Z,0
2017-10-03T04:07:21.634Z,0
2017-10-03T04:08:32.051Z,0
2017-10-03T04:09:42.383Z,0
2017-10-03T04:10:52.080Z,0
2017-10-03T04:12:02.407Z,0
2017-10-03T04:13:12.748Z,0
2017-10-03T04:14:22.496Z,0
2017-10-03T04:15:32.521Z,0
2017-10-03T04:16:42.550Z,0
2017-10-03T04:17:52.887Z,0
2017-10-03T04:19:03.211Z,0
2017-10-03T04:20:13.555Z,0
2017-10-03T04:21:23.583Z,0
2017-10-03T04:22:33.619Z,0
2017-10-03T04:23:43.954Z,0
2017-10-03T04:24:54.297Z,0
2017-10-03T04:26:04.694Z,0
2017-10-03T04:27:15.029Z,0
2017-10-03T04:28:25.052Z,0
2017-10-03T04:29:35.397Z,0
2017-10-03T04:30:45.726Z,0
2017-10-03T04:31:56.073Z,0
2017-10-03T04:33:06.414Z,0
2017-10-03T04:34:16.101Z,0
2017-10-03T04:35:26.443Z,0
2017-10-03T04:36:36.760Z,0
2017-10-03T04:37:46.822Z,0
2017-10-03T04:38:56.877Z,0
2017-10-03T04:40:06.898Z,0
2017-10-03T04:41:17.230Z,0
2017-10-03T04:42:27.553Z,0
2017-10-03T04:43:37.951Z,0
2017-10-03T04:44:48.292Z,0
2017-10-03T04:45:58.301Z,0
2017-10-03T04:47:09.167Z,0
2017-10-03T04:48:19.498Z,0
2017-10-03T04:49:29.563Z,0
2017-10-03T04:50:39.581Z,0
2017-10-03T04:51:49.918Z,0
2017-10-03T04:53:00.281Z,0
2017-10-03T04:54:10.325Z,0
2017-10-03T04:55:20.701Z,0
2017-10-03T04:56:31.035Z,0
2017-10-03T04:57:41.081Z,0
2017-10-03T04:58:51.436Z,0
2017-10-03T05:00:01.476Z,0
2017-10-03T05:01:11.229Z,0
2017-10-03T05:02:21.562Z,0
2017-10-03T05:03:31.919Z,0
2017-10-03T05:04:42.258Z,0
2017-10-03T05:05:52.594Z,0
2017-10-03T05:07:02.670Z,0
2017-10-03T05:08:12.717Z,0
2017-10-03T05:09:22.726Z,0
2017-10-03T05:10:32.429Z,0
2017-10-03T05:11:42.757Z,0
2017-10-03T05:12:52.799Z,0
2017-10-03T05:14:03.133Z,5
2017-10-03T05:15:13.138Z,5
2017-10-03T05:16:23.163Z,5
2017-10-03T05:17:33.503Z,5
2017-10-03T05:18:43.580Z,5
2017-10-03T05:19:53.949Z,5
2017-10-03T05:21:04.297Z,5
2017-10-03T05:22:14.642Z,5
2017-10-03T05:23:25.006Z,5
2017-10-03T05:24:35.040Z,5
2017-10-03T05:25:45.385Z,10
2017-10-03T05:26:55.414Z,10
2017-10-03T05:28:05.107Z,10
2017-10-03T05:29:15.450Z,10
2017-10-03T05:30:25.835Z,10
2017-10-03T05:31:36.181Z,15
2017-10-03T05:32:45.879Z,15
2017-10-03T05:33:55.910Z,15
2017-10-03T05:35:06.251Z,15
2017-10-03T05:36:16.651Z,15
2017-10-03T05:37:26.988Z,15
2017-10-03T05:38:37.326Z,15
2017-10-03T05:39:47.649Z,15
2017-10-03T05:40:57.967Z,15
2017-10-03T05:42:08.362Z,15
2017-10-03T05:43:18.390Z,20
2017-10-03T05:44:28.713Z,20
2017-10-03T05:45:38.743Z,20
2017-10-03T05:46:48.764Z,20
2017-10-03T05:47:58.467Z,20
2017-10-03T05:49:08.790Z,15
2017-10-03T05:50:19.972Z,15
2017-10-03T05:51:30.301Z,15
2017-10-03T05:52:40.639Z,15
2017-10-03T05:53:50.343Z,15
2017-10-03T05:55:00.680Z,15
2017-10-03T05:56:11.029Z,15
2017-10-03T05:57:21.074Z,20
2017-10-03T05:58:31.406Z,20
2017-10-03T05:59:41.464Z,20
2017-10-03T06:00:51.787Z,20
2017-10-03T06:02:02.110Z,25
2017-10-03T06:03:12.435Z,25
2017-10-03T06:04:22.438Z,25
2017-10-03T06:05:32.835Z,20
2017-10-03T06:06:43.174Z,20
2017-10-03T06:07:53.187Z,20
2017-10-03T06:09:03.519Z,20
2017-10-03T06:10:13.540Z,20
2017-10-03T06:11:23.885Z,20
2017-10-03T06:12:34.215Z,20
2017-10-03T06:13:44.231Z,20
2017-10-03T06:14:54.253Z,20
2017-10-03T06:16:04.273Z,20
2017-10-03T06:17:14.650Z,20
2017-10-03T06:18:24.988Z,20
2017-10-03T06:19:35.330Z,20
2017-10-03T06:20:45.685Z,20
2017-10-03T06:21:56.019Z,25
2017-10-03T06:23:06.075Z,25
2017-10-03T06:24:16.410Z,25
2017-10-03T06:25:26.758Z,25
2017-10-03T06:26:37.092Z,25
2017-10-03T06:27:47.422Z,25
2017-10-03T06:28:57.754Z,25
2017-10-03T06:30:08.093Z,30
2017-10-03T06:31:18.112Z,30
2017-10-03T06:32:28.135Z,30
2017-10-03T06:33:38.453Z,30
2017-10-03T06:34:48.522Z,30
2017-10-03T06:35:58.564Z,35
2017-10-03T06:37:08.895Z,35
2017-10-03T06:38:18.909Z,35
2017-10-03T06:39:28.616Z,35
2017-10-03T06:40:38.627Z,40
2017-10-03T06:41:48.635Z,40
2017-10-03T06:42:58.974Z,40
2017-10-03T06:44:09.310Z,40
2017-10-03T06:45:19.648Z,40
2017-10-03T06:46:29.387Z,40
2017-10-03T06:47:39.721Z,40
2017-10-03T06:48:50.043Z,40
2017-10-03T06:50:00.399Z,40
2017-10-03T06:51:10.738Z,40
2017-10-03T06:52:21.118Z,40
2017-10-03T06:53:31.440Z,40
2017-10-03T06:54:40.832Z,40
2017-10-03T06:55:51.180Z,40
2017-10-03T06:57:01.193Z,45
2017-10-03T06:58:11.581Z,45
2017-10-03T06:59:21.926Z,45
2017-10-03T07:00:31.956Z,45
2017-10-03T07:01:42.302Z,45
2017-10-03T07:02:52.367Z,45
2017-10-03T07:04:02.437Z,50
2017-10-03T07:05:12.794Z,50
2017-10-03T07:06:23.130Z,50
2017-10-03T07:07:33.477Z,50
2017-10-03T07:08:43.843Z,50
2017-10-03T07:09:54.330Z,50
2017-10-03T07:11:04.357Z,50
2017-10-03T07:12:14.053Z,50
2017-10-03T07:13:24.065Z,50
2017-10-03T07:14:33.771Z,55
2017-10-03T07:15:43.839Z,55
2017-10-03T07:16:54.185Z,55
2017-10-03T07:18:04.506Z,55
2017-10-03T07:19:14.854Z,60
2017-10-03T07:20:25.217Z,60
2017-10-03T07:21:35.569Z,60
2017-10-03T07:22:45.271Z,65
2017-10-03T07:23:55.604Z,65
2017-10-03T07:25:05.632Z,65
2017-10-03T07:26:15.980Z,65
2017-10-03T07:27:26.365Z,65
2017-10-03T07:28:36.377Z,65
2017-10-03T07:29:46.396Z,65
2017-10-03T07:30:56.410Z,65
2017-10-03T07:32:06.749Z,65
2017-10-03T07:33:16.762Z,65
2017-10-03T07:34:26.778Z,65
2017-10-03T07:35:37.113Z,65
2017-10-03T07:36:47.142Z,70
2017-10-03T07:37:57.483Z,70
2017-10-03T07:39:07.886Z,70
2017-10-03T07:40:18.237Z,65
2017-10-03T07:41:28.574Z,65
2017-10-03T07:42:38.906Z,60
2017-10-03T07:43:50.114Z,65
2017-10-03T07:45:00.443Z,65
2017-10-03T07:46:10.801Z,65
2017-10-03T07:47:21.137Z,70
2017-10-03T07:48:31.458Z,70
2017-10-03T07:49:41.485Z,70
2017-10-03T07:50:51.894Z,75
2017-10-03T07:52:02.224Z,80
2017-10-03T07:53:12.582Z,80
2017-10-03T07:54:22.923Z,80
2017-10-03T07:55:32.620Z,80
2017-10-03T07:56:43.013Z,80
2017-10-03T07:57:53.355Z,80
2017-10-03T07:59:03.690Z,80
2017-10-03T08:00:14.072Z,85
2017-10-03T08:01:24.404Z,85
2017-10-03T08:02:34.743Z,90
2017-10-03T08:03:45.192Z,95
2017-10-03T08:04:55.599Z,95
2017-10-03T08:06:05.621Z,95
2017-10-03T08:07:16.370Z,95
2017-10-03T08:08:26.397Z,95
2017-10-03T08:09:36.763Z,95
2017-10-03T08:10:47.107Z,100
2017-10-03T08:11:57.440Z,100
2017-10-03T08:13:07.779Z,100
2017-10-03T08:14:18.130Z,100
2017-10-03T08:15:28.524Z,100
2017-10-03T08:16:38.859Z,100
2017-10-03T08:17:48.901Z,100
2017-10-03T08:18:59.231Z,105
2017-10-03T08:20:10.050Z,110
2017-10-03T08:21:20.450Z,110
2017-10-03T08:22:30.812Z,110
2017-10-03T08:23:40.842Z,110
2017-10-03T08:24:51.182Z,115
2017-10-03T08:26:01.249Z,115
2017-10-03T08:27:11.336Z,120
2017-10-03T08:28:21.692Z,130
2017-10-03T08:29:32.032Z,135
2017-10-03T08:30:42.057Z,140
2017-10-03T08:31:52.078Z,140
2017-10-03T08:33:01.776Z,140
2017-10-03T08:34:11.482Z,130
2017-10-03T08:35:21.819Z,120
2017-10-03T08:36:32.158Z,110
2017-10-03T08:37:41.857Z,105
2017-10-03T08:38:52.515Z,100
2017-10-03T08:40:02.845Z,100
2017-10-03T08:41:13.207Z,100
2017-10-03T08:42:23.232Z,100
2017-10-03T08:43:33.573Z,100
2017-10-03T08:44:43.993Z,100
2017-10-03T08:45:54.347Z,105
2017-10-03T08:47:04.382Z,105
2017-10-03T08:48:14.975Z,100
2017-10-03T08:49:25.020Z,95
2017-10-03T08:50:35.398Z,90
2017-10-03T08:51:45.749Z,90
2017-10-03T08:52:56.097Z,90
2017-10-03T08:54:06.443Z,85
2017-10-03T08:55:16.780Z,85
2017-10-03T08:56:27.172Z,80
2017-10-03T08:57:37.521Z,80
2017-10-03T08:58:47.860Z,80
2017-10-03T08:59:57.896Z,85
2017-10-03T09:01:07.920Z,85
2017-10-03T09:02:18.191Z,85
2017-10-03T09:03:28.524Z,85
2017-10-03T09:04:38.890Z,85
2017-10-03T09:05:49.237Z,85
2017-10-03T09:06:59.576Z,85
2017-10-03T09:08:09.949Z,85
2017-10-03T09:09:20.295Z,80
2017-10-03T09:10:30.666Z,80
2017-10-03T09:11:41.018Z,75
2017-10-03T09:12:51.364Z,70
2017-10-03T09:14:02.058Z,65
2017-10-03T09:15:13.160Z,60
2017-10-03T09:16:23.515Z,55
2017-10-03T09:17:33.226Z,50
2017-10-03T09:18:43.583Z,50
2017-10-03T09:19:54.668Z,55
2017-10-03T09:21:04.698Z,55
2017-10-03T09:22:14.717Z,60
2017-10-03T09:23:24.741Z,65
2017-10-03T09:24:35.079Z,65
2017-10-03T09:25:45.426Z,70
2017-10-03T09:26:55.781Z,75
2017-10-03T09:28:06.134Z,80
2017-10-03T09:29:16.172Z,85
2017-10-03T09:30:26.198Z,85
2017-10-03T09:31:36.575Z,80
2017-10-03T09:32:46.906Z,80
2017-10-03T09:33:57.261Z,85
2017-10-03T09:35:07.304Z,90
2017-10-03T09:36:17.323Z,90
2017-10-03T09:37:27.409Z,95
2017-10-03T09:38:37.768Z,95
2017-10-03T09:39:48.141Z,100
2017-10-03T09:40:58.501Z,105
2017-10-03T09:42:08.859Z,105
2017-10-03T09:43:19.253Z,110
2017-10-03T09:44:29.597Z,115
2017-10-03T09:45:39.961Z,115
2017-10-03T09:46:50.295Z,110
2017-10-03T09:48:00.333Z,115
2017-10-03T09:49:10.101Z,120
2017-10-03T09:50:19.806Z,125
2017-10-03T09:51:30.164Z,125
2017-10-03T09:52:40.197Z,130
2017-10-03T09:53:50.543Z,135
2017-10-03T09:55:00.622Z,135
2017-10-03T09:56:10.967Z,135
2017-10-03T09:57:21.314Z,135
2017-10-03T09:58:31.671Z,130
2017-10-03T09:59:41.688Z,125
2017-10-03T10:00:52.053Z,120
2017-10-03T10:02:02.382Z,125
2017-10-03T10:03:12.738Z,120
2017-10-03T10:04:23.068Z,120
2017-10-03T10:05:34.421Z,120
2017-10-03T10:06:44.848Z,120
2017-10-03T10:07:55.192Z,115
2017-10-03T10:09:05.547Z,110
2017-10-03T10:10:15.890Z,100
2017-10-03T10:11:25.930Z,100
2017-10-03T10:12:35.640Z,95
2017-10-03T10:13:45.663Z,85
2017-10-03T10:14:56.007Z,85
2017-10-03T10:16:06.031Z,90
2017-10-03T10:17:16.420Z,90
2017-10-03T10:18:26.832Z,90
2017-10-03T10:19:37.168Z,90
2017-10-03T10:20:47.203Z,90
2017-10-03T10:21:57.237Z,90
2017-10-03T10:23:07.588Z,85
2017-10-03T10:24:17.626Z,90
2017-10-03T10:25:27.664Z,85
2017-10-03T10:26:37.715Z,85
2017-10-03T10:27:48.069Z,90
2017-10-03T10:28:58.393Z,95
2017-10-03T10:30:08.478Z,95
2017-10-03T10:31:18.518Z,105
2017-10-03T10:32:28.848Z,105
2017-10-03T10:33:39.223Z,105
2017-10-03T10:34:49.575Z,100
2017-10-03T10:35:59.977Z,100
2017-10-03T10:37:10.047Z,100
2017-10-03T10:38:19.764Z,100
2017-10-03T10:39:29.801Z,105
2017-10-03T10:40:40.134Z,100
2017-10-03T10:41:50.531Z,90
2017-10-03T10:43:00.892Z,85
2017-10-03T10:44:10.904Z,85
2017-10-03T10:45:20.936Z,85
2017-10-03T10:46:31.303Z,80
2017-10-03T10:47:41.712Z,85
2017-10-03T10:48:52.089Z,85
2017-10-03T10:50:02.267Z,80
2017-10-03T10:51:12.605Z,65
2017-10-03T10:52:22.950Z,50
2017-10-03T10:53:33.046Z,45
2017-10-03T10:54:43.061Z,40
2017-10-03T10:55:53.443Z,35
2017-10-03T10:57:03.453Z,25
2017-10-03T10:58:13.476Z,20
2017-10-03T10:59:23.871Z,20
2017-10-03T11:00:34.211Z,20
2017-10-03T11:01:44.250Z,25
2017-10-03T11:02:54.612Z,25
2017-10-03T11:04:05.551Z,35
2017-10-03T11:05:15.941Z,40
2017-10-03T11:06:25.661Z,45
2017-10-03T11:07:35.711Z,50
2017-10-03T11:08:45.722Z,60
2017-10-03T11:09:56.077Z,60
2017-10-03T11:11:06.189Z,65
2017-10-03T11:12:16.228Z,70
2017-10-03T11:13:26.258Z,75
2017-10-03T11:14:36.330Z,75
2017-10-03T11:15:46.354Z,75
2017-10-03T11:16:56.749Z,70
2017-10-03T11:18:07.088Z,60
2017-10-03T11:19:17.459Z,55
2017-10-03T11:20:27.835Z,55
2017-10-03T11:21:38.195Z,50
2017-10-03T11:22:48.590Z,45
2017-10-03T11:23:58.969Z,35
2017-10-03T11:25:09.345Z,25
2017-10-03T11:26:19.695Z,30
2017-10-03T11:27:30.034Z,35
2017-10-03T11:28:40.070Z,35
2017-10-03T11:29:51.098Z,30
2017-10-03T11:31:01.434Z,30
2017-10-03T11:32:11.791Z,45
2017-10-03T11:33:22.180Z,50
2017-10-03T11:34:32.279Z,35
2017-10-03T11:35:42.620Z,30
2017-10-03T11:36:52.985Z,25
2017-10-03T11:38:03.118Z,20
2017-10-03T11:39:13.214Z,20
2017-10-03T11:40:23.625Z,15
2017-10-03T11:41:33.649Z,10
2017-10-03T11:42:43.994Z,10
2017-10-03T11:43:54.335Z,20
2017-10-03T11:45:04.688Z,25
2017-10-03T11:46:14.793Z,25
2017-10-03T11:47:24.799Z,25
2017-10-03T11:48:34.543Z,20
2017-10-03T11:49:45.031Z,20
2017-10-03T11:50:54.755Z,20
2017-10-03T11:52:05.192Z,20
2017-10-03T11:53:15.561Z,20
2017-10-03T11:54:25.921Z,15
2017-10-03T11:55:35.946Z,10
2017-10-03T11:56:46.313Z,15
2017-10-03T11:57:56.697Z,25
2017-10-03T11:59:07.044Z,25
2017-10-03T12:00:18.593Z,20
2017-10-03T12:01:28.967Z,15
2017-10-03T12:02:38.989Z,25
2017-10-03T12:03:49.339Z,30
2017-10-03T12:04:59.370Z,35
2017-10-03T12:06:09.726Z,40
2017-10-03T12:07:20.084Z,45
2017-10-03T12:08:30.101Z,50
2017-10-03T12:09:40.151Z,50
2017-10-03T12:10:50.563Z,50
2017-10-03T12:12:00.325Z,45
2017-10-03T12:13:10.670Z,55
2017-10-03T12:14:21.035Z,55
2017-10-03T12:15:31.630Z,55
2017-10-03T12:16:42.086Z,60
2017-10-03T12:17:52.472Z,60
2017-10-03T12:19:04.055Z,65
2017-10-03T12:20:14.385Z,65
2017-10-03T12:21:24.420Z,65
2017-10-03T12:22:37.104Z,65
2017-10-03T12:23:47.459Z,65
2017-10-03T12:24:57.811Z,65
2017-10-03T12:26:08.173Z,65
2017-10-03T12:27:18.197Z,60
2017-10-03T12:28:28.605Z,60
2017-10-03T12:29:38.970Z,60
2017-10-03T12:30:49.016Z,60
2017-10-03T12:31:59.366Z,60
2017-10-03T12:33:09.412Z,60
2017-10-03T12:34:19.809Z,60
2017-10-03T12:35:32.951Z,55
2017-10-03T12:36:43.415Z,55
2017-10-03T12:37:53.772Z,55
2017-10-03T12:39:03.794Z,55
2017-10-03T12:40:14.179Z,50
2017-10-03T12:41:24.211Z,50
2017-10-03T12:42:34.239Z,50
2017-10-03T12:43:44.258Z,50
2017-10-03T12:44:54.604Z,45
2017-10-03T12:46:04.702Z,45
2017-10-03T12:47:14.754Z,45
2017-10-03T12:48:24.815Z,45
2017-10-03T12:49:34.849Z,45
2017-10-03T12:50:44.865Z,45
2017-10-03T12:51:55.213Z,45
2017-10-03T12:53:05.563Z,45
2017-10-03T12:54:15.911Z,45
2017-10-03T12:55:26.288Z,45
2017-10-03T12:56:36.643Z,45
2017-10-03T12:57:47.028Z,45
2017-10-03T12:58:57.379Z,45
2017-10-03T13:00:07.743Z,45
2017-10-03T13:01:18.091Z,45
2017-10-03T13:02:28.464Z,45
2017-10-03T13:03:38.906Z,45
2017-10-03T13:04:49.250Z,40
2017-10-03T13:05:59.282Z,40
2017-10-03T13:07:09.320Z,35
2017-10-03T13:08:19.358Z,30
2017-10-03T13:09:29.793Z,30
2017-10-03T13:10:40.133Z,30
2017-10-03T13:11:50.495Z,30
2017-10-03T13:13:00.838Z,35
2017-10-03T13:14:10.901Z,30
2017-10-03T13:15:21.302Z,30
2017-10-03T13:16:31.329Z,30
2017-10-03T13:17:41.685Z,30
2017-10-03T13:18:52.041Z,30
2017-10-03T13:20:02.065Z,30
2017-10-03T13:21:12.420Z,25
2017-10-03T13:22:22.780Z,25
2017-10-03T13:23:33.141Z,25
2017-10-03T13:24:43.169Z,25
2017-10-03T13:25:53.526Z,25
2017-10-03T13:27:03.621Z,20
2017-10-03T13:28:13.992Z,20
2017-10-03T13:29:24.352Z,30
2017-10-03T13:30:34.680Z,35
2017-10-03T13:31:45.033Z,40
2017-10-03T13:32:55.135Z,40
2017-10-03T13:34:05.488Z,45
2017-10-03T13:35:15.592Z,45
2017-10-03T13:36:25.644Z,45
2017-10-03T13:37:35.681Z,45
2017-10-03T13:38:46.122Z,40
2017-10-03T13:39:56.574Z,45
2017-10-03T13:41:06.592Z,45
2017-10-03T13:42:16.967Z,45
2017-10-03T13:43:27.315Z,45
2017-10-03T13:44:37.727Z,40
2017-10-03T13:45:48.079Z,35
2017-10-03T13:46:58.429Z,40
2017-10-03T13:48:08.505Z,45
2017-10-03T13:49:18.531Z,50
2017-10-03T13:50:28.911Z,50
2017-10-03T13:51:39.274Z,55
2017-10-03T13:52:49.641Z,55
2017-10-03T13:53:59.671Z,50
2017-10-03T13:55:09.711Z,50
2017-10-03T13:56:19.535Z,50
2017-10-03T13:57:29.870Z,45
2017-10-03T13:58:39.940Z,45
2017-10-03T13:59:50.297Z,50
2017-10-03T14:01:00.341Z,50
2017-10-03T14:02:10.108Z,45
2017-10-03T14:03:20.449Z,40
2017-10-03T14:04:30.807Z,35
2017-10-03T14:05:40.858Z,30
2017-10-03T14:06:50.884Z,35
2017-10-03T14:08:01.297Z,35
2017-10-03T14:09:11.317Z,40
2017-10-03T14:10:21.354Z,45
2017-10-03T14:11:31.388Z,45
2017-10-03T14:12:41.433Z,40
2017-10-03T14:13:51.461Z,35
2017-10-03T14:15:01.822Z,40
2017-10-03T14:16:12.177Z,45
2017-10-03T14:17:22.522Z,45
2017-10-03T14:18:32.538Z,40
2017-10-03T14:19:42.886Z,40
2017-10-03T14:20:53.236Z,40
2017-10-03T14:22:03.287Z,40
2017-10-03T14:23:13.634Z,40
2017-10-03T14:24:23.999Z,40
2017-10-03T14:25:34.095Z,40
2017-10-03T14:26:44.461Z,35
2017-10-03T14:27:54.487Z,35
2017-10-03T14:29:04.861Z,40
2017-10-03T14:30:15.212Z,40
2017-10-03T14:31:25.637Z,35
2017-10-03T14:32:35.708Z,35
2017-10-03T14:33:46.061Z,35
2017-10-03T14:34:56.418Z,35
2017-10-03T14:36:06.787Z,35
2017-10-03T14:37:16.548Z,25
2017-10-03T14:38:26.914Z,20
2017-10-03T14:39:37.272Z,15
2017-10-03T14:40:47.608Z,15
2017-10-03T14:41:57.948Z,15
2017-10-03T14:43:08.296Z,15
2017-10-03T14:44:18.659Z,10
2017-10-03T14:45:29.042Z,10
2017-10-03T14:46:39.423Z,15
2017-10-03T14:47:49.767Z,15
2017-10-03T14:49:00.120Z,15
2017-10-03T14:50:10.487Z,15
2017-10-03T14:51:20.859Z,20
2017-10-03T14:52:30.930Z,10
2017-10-03T14:53:41.304Z,10
2017-10-03T14:54:51.100Z,10
2017-10-03T14:56:01.117Z,15
2017-10-03T14:57:11.471Z,15
2017-10-03T14:58:21.845Z,15
2017-10-03T14:59:31.870Z,15
2017-10-03T15:00:41.969Z,15
2017-10-03T15:01:52.000Z,15
2017-10-03T15:03:02.360Z,15
2017-10-03T15:04:12.738Z,15
2017-10-03T15:05:23.098Z,15
2017-10-03T15:06:33.247Z,15
2017-10-03T15:07:43.607Z,15
2017-10-03T15:08:53.989Z,15
2017-10-03T15:10:04.021Z,15
2017-10-03T15:11:14.399Z,15
2017-10-03T15:12:24.842Z,20
2017-10-03T15:13:34.866Z,20
2017-10-03T15:14:45.238Z,15
2017-10-03T15:15:55.252Z,15
2017-10-03T15:17:05.592Z,15
2017-10-03T15:18:15.996Z,15
2017-10-03T15:19:26.364Z,15
2017-10-03T15:20:36.407Z,15
2017-10-03T15:21:46.454Z,15
2017-10-03T15:22:56.805Z,15
2017-10-03T15:24:07.240Z,15
2017-10-03T15:25:18.791Z,15
2017-10-03T15:26:29.138Z,15
2017-10-03T15:27:39.508Z,10
2017-10-03T15:28:49.556Z,10
2017-10-03T15:29:59.329Z,15
2017-10-03T15:31:10.468Z,15
2017-10-03T15:32:21.073Z,15
2017-10-03T15:33:31.131Z,15
2017-10-03T15:34:42.150Z,15
2017-10-03T15:35:52.658Z,15
2017-10-03T15:37:03.440Z,15
2017-10-03T15:38:13.872Z,10
2017-10-03T15:39:24.265Z,10
2017-10-03T15:40:34.856Z,10
2017-10-03T15:41:44.989Z,15
2017-10-03T15:42:55.387Z,15
2017-10-03T15:44:05.746Z,15
2017-10-03T15:45:16.092Z,15
2017-10-03T15:46:26.153Z,15
2017-10-03T15:47:36.551Z,15
2017-10-03T15:48:46.576Z,15
2017-10-03T15:49:56.933Z,15
2017-10-03T15:51:07.319Z,15
2017-10-03T15:52:17.681Z,15
2017-10-03T15:53:27.764Z,15
2017-10-03T15:54:38.126Z,15
2017-10-03T15:55:48.174Z,15
2017-10-03T15:56:57.930Z,10
2017-10-03T15:58:07.961Z,10
2017-10-03T15:59:18.382Z,10
2017-10-03T16:00:28.427Z,10
2017-10-03T16:01:39.031Z,10
2017-10-03T16:02:49.419Z,5
2017-10-03T16:03:59.770Z,5
2017-10-03T16:05:10.132Z,5
2017-10-03T16:06:20.482Z,5
2017-10-03T16:07:30.842Z,5
2017-10-03T16:08:41.194Z,5
2017-10-03T16:09:51.533Z,5
2017-10-03T16:11:01.933Z,5
2017-10-03T16:12:12.317Z,5
2017-10-03T16:13:22.679Z,5
2017-10-03T16:14:32.713Z,5
2017-10-03T16:15:43.053Z,5
2017-10-03T16:16:53.449Z,5
2017-10-03T16:18:03.177Z,5
2017-10-03T16:19:13.520Z,5
2017-10-03T16:20:23.862Z,5
2017-10-03T16:21:33.887Z,5
2017-10-03T16:22:44.317Z,0
2017-10-03T16:23:54.664Z,0
2017-10-03T16:25:05.041Z,0
2017-10-03T16:26:15.406Z,0
2017-10-03T16:27:25.442Z,0
2017-10-03T16:28:35.850Z,0
2017-10-03T16:29:46.191Z,0
2017-10-03T16:30:56.534Z,0
2017-10-03T16:32:06.913Z,0
2017-10-03T16:33:17.257Z,0
2017-10-03T16:34:29.513Z,0
2017-10-03T16:35:39.911Z,0
2017-10-03T16:36:50.284Z,0
2017-10-03T16:38:00.667Z,0
2017-10-03T16:39:10.716Z,0
2017-10-03T16:40:21.092Z,0
2017-10-03T16:41:31.447Z,0
2017-10-03T16:42:41.792Z,0
2017-10-03T16:43:52.156Z,0
2017-10-03T16:45:02.502Z,0
2017-10-03T16:46:12.933Z,0
2017-10-03T16:47:24.158Z,0
2017-10-03T16:48:34.523Z,0
2017-10-03T16:49:44.234Z,0
2017-10-03T16:50:54.578Z,0
2017-10-03T16:52:05.008Z,0
2017-10-03T16:53:15.390Z,0
2017-10-03T16:54:25.441Z,0
2017-10-03T16:55:35.492Z,0
2017-10-03T16:56:45.869Z,0
2017-10-03T16:57:56.278Z,0
2017-10-03T16:59:06.657Z,0
2017-10-03T17:00:16.694Z,0
2017-10-03T17:01:27.054Z,0
2017-10-03T17:02:38.727Z,0
2017-10-03T17:03:49.153Z,0
2017-10-03T17:04:59.522Z,0
2017-10-03T17:06:09.885Z,0
2017-10-03T17:07:19.602Z,0
2017-10-03T17:08:29.953Z,0
2017-10-03T17:09:40.295Z,0
2017-10-03T17:10:50.638Z,0
2017-10-03T17:12:01.014Z,0
2017-10-03T17:13:11.055Z,0
2017-10-03T17:14:21.413Z,0
2017-10-03T17:15:31.447Z,0
2017-10-03T17:16:41.803Z,0
2017-10-03T17:17:51.492Z,0
2017-10-03T17:19:01.852Z,0
2017-10-03T17:20:12.222Z,0
2017-10-03T17:21:22.645Z,0
2017-10-03T17:22:32.664Z,0
2017-10-03T17:23:42.699Z,0
2017-10-03T17:24:53.041Z,0
2017-10-03T17:26:03.454Z,0
2017-10-03T17:27:13.546Z,0
2017-10-03T17:28:23.916Z,0